createdAt,value
2023-09-17T00:01:56.994Z,12.10
2023-09-17T00:04:00.058Z,12.00
2023-09-17T00:06:02.092Z,12.00
2023-09-17T00:08:05.116Z,11.90
2023-09-17T00:10:07.080Z,11.90
2023-09-17T00:12:10.247Z,11.80
2023-09-17T00:14:12.045Z,11.80
2023-09-17T00:16:14.017Z,11.80
2023-09-17T00:18:16.617Z,11.90
2023-09-17T00:20:18.663Z,11.90
2023-09-17T00:22:20.514Z,11.90
2023-09-17T00:24:22.418Z,11.80
2023-09-17T00:26:24.222Z,11.80
2023-09-17T00:28:26.071Z,11.80
2023-09-17T00:30:29.000Z,11.80
2023-09-17T00:32:30.847Z,11.80
2023-09-17T00:34:32.710Z,11.90
2023-09-17T00:36:34.602Z,11.80
2023-09-17T00:38:36.368Z,11.80
2023-09-17T00:40:39.559Z,11.80
2023-09-17T00:42:41.878Z,11.70
2023-09-17T00:44:43.674Z,11.70
2023-09-17T00:46:45.606Z,11.70
2023-09-17T00:48:47.588Z,11.70
2023-09-17T00:50:49.383Z,11.70
2023-09-17T00:52:51.344Z,11.70
2023-09-17T00:54:53.211Z,11.70
2023-09-17T00:56:55.855Z,11.60
2023-09-17T00:58:57.761Z,11.60
2023-09-17T01:00:59.810Z,11.60
2023-09-17T01:03:01.939Z,11.60
2023-09-17T01:05:06.039Z,11.50
2023-09-17T01:07:08.421Z,11.50
2023-09-17T01:09:10.882Z,11.40
2023-09-17T01:11:12.676Z,11.40
2023-09-17T01:13:15.598Z,11.40
2023-09-17T01:15:17.452Z,11.40
2023-09-17T01:17:19.787Z,11.40
2023-09-17T01:19:24.793Z,11.40
2023-09-17T01:21:37.482Z,11.40
2023-09-17T01:23:39.223Z,11.40
2023-09-17T01:25:53.683Z,11.40
2023-09-17T01:27:56.524Z,11.40
2023-09-17T01:29:58.336Z,11.30
2023-09-17T01:32:00.242Z,11.30
2023-09-17T01:34:02.316Z,11.30
2023-09-17T01:36:10.148Z,11.20
2023-09-17T01:38:14.443Z,11.20
2023-09-17T01:40:16.752Z,11.20
2023-09-17T01:42:21.627Z,11.20
2023-09-17T01:44:25.400Z,11.20
2023-09-17T01:46:27.542Z,11.10
2023-09-17T01:48:29.774Z,11.10
2023-09-17T01:50:31.649Z,11.00
2023-09-17T01:52:34.285Z,11.00
2023-09-17T01:54:36.298Z,11.00
2023-09-17T01:56:40.807Z,10.90
2023-09-17T01:58:42.630Z,10.90
2023-09-17T02:00:44.601Z,10.90
2023-09-17T02:02:50.376Z,11.00
2023-09-17T02:04:52.284Z,11.10
2023-09-17T02:06:55.313Z,11.10
2023-09-17T02:08:57.234Z,11.10
2023-09-17T02:10:59.092Z,11.00
2023-09-17T02:13:00.887Z,11.00
2023-09-17T02:15:02.806Z,11.00
2023-09-17T02:17:04.565Z,11.00
2023-09-17T02:19:06.331Z,11.00
2023-09-17T02:21:08.155Z,11.00
2023-09-17T02:23:11.527Z,11.00
2023-09-17T02:25:13.464Z,10.90
2023-09-17T02:27:15.334Z,10.80
2023-09-17T02:29:17.138Z,10.80
2023-09-17T02:31:19.263Z,10.80
2023-09-17T02:33:21.146Z,10.70
2023-09-17T02:35:22.905Z,10.70
2023-09-17T02:37:24.837Z,10.60
2023-09-17T02:39:26.849Z,10.60
2023-09-17T02:41:28.627Z,10.60
2023-09-17T02:43:31.015Z,10.60
2023-09-17T02:45:32.921Z,10.70
2023-09-17T02:47:35.005Z,10.60
2023-09-17T02:49:37.091Z,10.60
2023-09-17T02:51:38.906Z,10.50
2023-09-17T02:53:40.650Z,10.50
2023-09-17T02:55:42.522Z,10.50
2023-09-17T02:57:44.344Z,10.50
2023-09-17T02:59:46.458Z,10.50
2023-09-17T03:01:48.515Z,10.40
2023-09-17T03:03:50.679Z,10.40
2023-09-17T03:05:52.716Z,10.30
2023-09-17T03:08:00.113Z,10.30
2023-09-17T03:10:08.599Z,10.30
2023-09-17T03:12:12.028Z,10.30
2023-09-17T03:14:13.844Z,10.30
2023-09-17T03:16:17.041Z,10.30
2023-09-17T03:18:19.141Z,10.30
2023-09-17T03:20:23.645Z,10.30
2023-09-17T03:22:25.780Z,10.30
2023-09-17T03:24:27.637Z,10.30
2023-09-17T03:26:29.448Z,10.30
2023-09-17T03:28:31.801Z,10.40
2023-09-17T03:30:33.618Z,10.40
2023-09-17T03:32:36.635Z,10.30
2023-09-17T03:34:44.244Z,10.30
2023-09-17T03:36:46.054Z,10.30
2023-09-17T03:38:47.833Z,10.30
2023-09-17T03:40:49.811Z,10.30
2023-09-17T03:42:51.670Z,10.30
2023-09-17T03:44:53.476Z,10.30
2023-09-17T03:46:55.379Z,10.30
2023-09-17T03:48:57.978Z,10.40
2023-09-17T03:51:01.415Z,10.50
2023-09-17T03:53:06.409Z,10.50
2023-09-17T03:55:09.187Z,10.60
2023-09-17T03:57:11.045Z,10.50
2023-09-17T03:59:12.948Z,10.60
2023-09-17T04:01:14.970Z,10.70
2023-09-17T04:03:20.229Z,10.70
2023-09-17T04:05:22.793Z,10.60
2023-09-17T04:07:24.691Z,10.70
2023-09-17T04:09:26.513Z,10.70
2023-09-17T04:11:30.538Z,10.70
2023-09-17T04:13:33.301Z,10.80
2023-09-17T04:15:36.416Z,10.70
2023-09-17T04:17:38.575Z,10.80
2023-09-17T04:19:40.444Z,10.90
2023-09-17T04:21:42.738Z,10.90
2023-09-17T04:23:44.587Z,11.00
2023-09-17T04:25:46.608Z,11.00
2023-09-17T04:27:48.949Z,11.00
2023-09-17T04:29:51.326Z,11.00
2023-09-17T04:31:53.162Z,11.10
2023-09-17T04:33:55.016Z,11.20
2023-09-17T04:35:57.676Z,11.40
2023-09-17T04:37:59.719Z,11.40
2023-09-17T04:40:02.072Z,11.50
2023-09-17T04:42:04.054Z,11.60
2023-09-17T04:44:08.685Z,11.70
2023-09-17T04:46:10.562Z,11.80
2023-09-17T04:48:12.834Z,11.80
2023-09-17T04:50:14.716Z,11.80
2023-09-17T04:52:16.627Z,11.70
2023-09-17T04:54:20.074Z,11.70
2023-09-17T04:56:21.841Z,11.70
2023-09-17T04:58:23.657Z,11.90
2023-09-17T05:00:25.538Z,12.00
2023-09-17T05:02:27.468Z,12.10
2023-09-17T05:04:29.359Z,12.10
2023-09-17T05:06:31.315Z,12.20
2023-09-17T05:08:33.285Z,12.30
2023-09-17T05:10:35.081Z,12.40
2023-09-17T05:12:37.012Z,12.40
2023-09-17T05:14:39.803Z,12.50
2023-09-17T05:16:43.453Z,12.50
2023-09-17T05:18:45.302Z,12.50
2023-09-17T05:20:49.424Z,12.60
2023-09-17T05:22:51.388Z,12.80
2023-09-17T05:24:53.262Z,12.90
2023-09-17T05:26:55.069Z,13.00
2023-09-17T05:28:56.948Z,13.00
2023-09-17T05:30:59.248Z,13.20
2023-09-17T05:33:01.049Z,13.30
2023-09-17T05:35:04.460Z,13.40
2023-09-17T05:37:06.569Z,13.50
2023-09-17T05:39:09.658Z,13.70
2023-09-17T05:41:13.258Z,13.80
2023-09-17T05:43:15.134Z,13.90
2023-09-17T05:45:17.132Z,14.20
2023-09-17T05:47:18.961Z,14.40
2023-09-17T05:49:20.856Z,14.50
2023-09-17T05:51:22.794Z,14.60
2023-09-17T05:53:24.633Z,14.70
2023-09-17T05:55:26.529Z,14.90
2023-09-17T05:57:28.367Z,15.10
2023-09-17T05:59:32.408Z,15.20
2023-09-17T06:01:35.104Z,15.40
2023-09-17T06:03:37.189Z,15.50
2023-09-17T06:05:39.144Z,15.70
2023-09-17T06:07:40.985Z,15.80
2023-09-17T06:09:42.976Z,15.90
2023-09-17T06:11:44.794Z,16.10
2023-09-17T06:13:46.680Z,16.20
2023-09-17T06:15:48.521Z,16.30
2023-09-17T06:17:50.447Z,16.20
2023-09-17T06:19:52.367Z,16.40
2023-09-17T06:21:54.893Z,16.60
2023-09-17T06:23:56.705Z,16.70
2023-09-17T06:25:58.555Z,16.90
2023-09-17T06:28:00.345Z,17.10
2023-09-17T06:30:02.230Z,17.10
2023-09-17T06:32:04.611Z,17.30
2023-09-17T06:34:06.532Z,17.40
2023-09-17T06:36:08.350Z,17.50
2023-09-17T06:38:10.262Z,17.60
2023-09-17T06:40:15.186Z,17.70
2023-09-17T06:42:17.034Z,17.80
2023-09-17T06:44:19.714Z,17.90
2023-09-17T06:46:23.482Z,18.00
2023-09-17T06:48:26.701Z,18.10
2023-09-17T06:50:28.714Z,18.20
2023-09-17T06:52:30.565Z,18.40
2023-09-17T06:54:32.457Z,18.50
2023-09-17T06:56:34.334Z,18.50
2023-09-17T06:58:36.449Z,18.60
2023-09-17T07:00:38.379Z,18.70
2023-09-17T07:02:40.228Z,18.70
2023-09-17T07:04:42.100Z,18.90
2023-09-17T07:06:44.377Z,19.00
2023-09-17T07:08:46.276Z,19.20
2023-09-17T07:10:48.209Z,19.30
2023-09-17T07:12:50.888Z,19.20
2023-09-17T07:14:52.857Z,19.30
2023-09-17T07:16:54.761Z,19.50
2023-09-17T07:18:56.629Z,19.50
2023-09-17T07:20:58.687Z,19.60
2023-09-17T07:23:00.572Z,19.70
2023-09-17T07:25:05.411Z,19.90
2023-09-17T07:27:07.433Z,20.10
2023-09-17T07:29:09.350Z,20.20
2023-09-17T07:31:12.429Z,20.20
2023-09-17T07:33:14.390Z,20.20
2023-09-17T07:35:17.345Z,20.30
2023-09-17T07:37:22.950Z,20.30
2023-09-17T07:39:27.656Z,20.40
2023-09-17T07:41:30.225Z,20.50
2023-09-17T07:43:32.129Z,20.60
2023-09-17T07:45:35.334Z,20.80
2023-09-17T07:47:37.225Z,20.90
2023-09-17T07:49:39.295Z,21.00
2023-09-17T07:51:41.131Z,21.00
2023-09-17T07:53:43.295Z,21.10
2023-09-17T07:55:45.192Z,21.20
2023-09-17T07:57:50.347Z,21.10
2023-09-17T07:59:53.573Z,21.30
2023-09-17T08:01:55.415Z,21.40
2023-09-17T08:03:58.466Z,21.40
2023-09-17T08:06:00.977Z,21.50
2023-09-17T08:08:02.868Z,21.40
2023-09-17T08:10:04.984Z,21.30
2023-09-17T08:12:07.119Z,21.60
2023-09-17T08:14:08.935Z,21.80
2023-09-17T08:16:10.824Z,22.00
2023-09-17T08:18:12.648Z,21.60
2023-09-17T08:20:14.498Z,21.30
2023-09-17T08:22:16.815Z,21.30
2023-09-17T08:24:21.524Z,21.20
2023-09-17T08:26:23.662Z,21.30
2023-09-17T08:28:25.533Z,21.30
2023-09-17T08:30:27.435Z,21.30
2023-09-17T08:32:29.611Z,21.60
2023-09-17T08:34:31.433Z,22.10
2023-09-17T08:36:33.680Z,22.30
2023-09-17T08:38:35.674Z,22.20
2023-09-17T08:40:38.042Z,22.10
2023-09-17T08:42:41.313Z,21.80
2023-09-17T08:44:43.528Z,21.70
2023-09-17T08:46:46.096Z,21.60
2023-09-17T08:48:48.215Z,21.70
2023-09-17T08:50:51.294Z,21.60
2023-09-17T08:52:55.453Z,21.50
2023-09-17T08:54:57.502Z,21.70
2023-09-17T08:57:01.417Z,21.70
2023-09-17T08:59:07.389Z,21.90
2023-09-17T09:01:12.068Z,21.70
2023-09-17T09:03:15.251Z,21.60
2023-09-17T09:05:17.909Z,21.60
2023-09-17T09:07:23.528Z,21.60
2023-09-17T09:09:26.203Z,21.80
2023-09-17T09:11:28.464Z,21.80
2023-09-17T09:13:30.886Z,21.90
2023-09-17T09:15:33.810Z,22.30
2023-09-17T09:17:35.661Z,22.50
2023-09-17T09:19:38.002Z,22.50
2023-09-17T09:21:40.764Z,22.40
2023-09-17T09:23:42.621Z,22.50
2023-09-17T09:25:45.558Z,22.90
2023-09-17T09:27:47.451Z,23.00
2023-09-17T09:29:49.264Z,22.80
2023-09-17T09:31:51.214Z,22.60
2023-09-17T09:33:53.504Z,22.60
2023-09-17T09:35:58.524Z,22.60
2023-09-17T09:38:01.386Z,22.80
2023-09-17T09:40:04.235Z,23.00
2023-09-17T09:42:06.969Z,22.90
2023-09-17T09:44:09.333Z,23.30
2023-09-17T09:46:11.289Z,23.60
2023-09-17T09:48:17.156Z,23.60
2023-09-17T09:50:22.872Z,23.50
2023-09-17T09:52:27.616Z,23.10
2023-09-17T09:54:29.449Z,23.60
2023-09-17T09:56:32.114Z,23.90
2023-09-17T09:58:33.981Z,24.10
2023-09-17T10:00:36.815Z,24.00
2023-09-17T10:02:38.646Z,24.10
2023-09-17T10:04:40.985Z,24.00
2023-09-17T10:06:42.949Z,23.50
2023-09-17T10:08:44.915Z,23.40
2023-09-17T10:10:48.791Z,23.20
2023-09-17T10:12:53.357Z,23.30
2023-09-17T10:14:56.112Z,23.40
2023-09-17T10:16:59.109Z,23.70
2023-09-17T10:19:01.301Z,24.00
2023-09-17T10:21:05.694Z,24.20
2023-09-17T10:23:07.931Z,24.40
2023-09-17T10:25:12.490Z,24.40
2023-09-17T10:27:15.142Z,24.60
2023-09-17T10:29:18.161Z,24.80
2023-09-17T10:31:20.821Z,24.50
2023-09-17T10:33:22.967Z,24.10
2023-09-17T10:35:25.735Z,24.10
2023-09-17T10:37:28.927Z,23.40
2023-09-17T10:39:32.271Z,23.30
2023-09-17T10:41:37.324Z,23.00
2023-09-17T10:43:40.452Z,22.90
2023-09-17T10:45:43.427Z,22.80
2023-09-17T10:47:46.293Z,22.70
2023-09-17T10:49:48.435Z,22.60
2023-09-17T10:51:51.996Z,22.80
2023-09-17T10:53:54.894Z,23.20
2023-09-17T10:56:02.002Z,23.50
2023-09-17T10:58:10.615Z,24.00
2023-09-17T11:00:15.082Z,24.30
2023-09-17T11:02:17.750Z,24.40
2023-09-17T11:04:21.660Z,24.40
2023-09-17T11:06:26.645Z,24.50
2023-09-17T11:08:28.590Z,24.40
2023-09-17T11:10:32.835Z,24.00
2023-09-17T11:12:35.904Z,23.50
2023-09-17T11:14:37.807Z,23.40
2023-09-17T11:16:39.846Z,23.40
2023-09-17T11:18:42.401Z,23.60
2023-09-17T11:21:08.441Z,24.10
2023-09-17T11:23:12.386Z,24.50
2023-09-17T11:25:19.562Z,24.50
2023-09-17T11:27:21.419Z,24.50
2023-09-17T11:29:37.515Z,24.20
2023-09-17T11:31:51.529Z,23.90
2023-09-17T11:33:53.738Z,23.60
2023-09-17T11:35:56.340Z,23.50
2023-09-17T11:37:58.512Z,23.80
2023-09-17T11:40:00.537Z,23.30
2023-09-17T11:42:07.188Z,23.30
2023-09-17T11:44:10.085Z,23.20
2023-09-17T11:46:15.775Z,23.20
2023-09-17T11:48:17.855Z,23.20
2023-09-17T11:50:20.231Z,23.00
2023-09-17T11:52:24.078Z,22.90
2023-09-17T11:54:34.709Z,22.80
2023-09-17T11:56:39.842Z,22.80
2023-09-17T11:58:41.758Z,22.90
2023-09-17T12:00:43.567Z,22.80
2023-09-17T12:02:45.569Z,22.80
2023-09-17T12:04:47.785Z,22.80
2023-09-17T12:06:50.575Z,22.90
2023-09-17T12:08:52.512Z,22.90
2023-09-17T12:10:58.722Z,22.90
2023-09-17T12:13:00.973Z,23.10
2023-09-17T12:15:07.365Z,23.20
2023-09-17T12:17:09.426Z,23.50
2023-09-17T12:19:18.445Z,23.70
2023-09-17T12:21:21.200Z,23.80
2023-09-17T12:23:38.349Z,24.10
2023-09-17T12:25:44.352Z,24.30
2023-09-17T12:27:47.001Z,24.40
2023-09-17T12:29:49.069Z,24.50
2023-09-17T12:31:51.058Z,24.60
2023-09-17T12:33:54.150Z,24.80
2023-09-17T12:35:57.285Z,24.50
2023-09-17T12:38:01.172Z,24.40
2023-09-17T12:40:03.289Z,24.60
2023-09-17T12:42:05.149Z,24.80
2023-09-17T12:44:07.098Z,24.90
2023-09-17T12:46:09.225Z,24.60
2023-09-17T12:48:11.108Z,24.60
2023-09-17T12:50:13.590Z,24.50
2023-09-17T12:52:16.970Z,24.60
2023-09-17T12:54:20.909Z,24.40
2023-09-17T12:56:23.013Z,24.30
2023-09-17T12:58:24.998Z,24.10
2023-09-17T13:00:26.870Z,24.40
2023-09-17T13:02:33.452Z,24.90
2023-09-17T13:04:41.441Z,24.90
2023-09-17T13:06:43.428Z,24.50
2023-09-17T13:08:45.279Z,24.30
2023-09-17T13:10:47.192Z,24.40
2023-09-17T13:12:49.256Z,24.20
2023-09-17T13:14:53.031Z,24.10
2023-09-17T13:16:55.145Z,24.10
2023-09-17T13:18:57.403Z,24.20
2023-09-17T13:20:59.379Z,24.10
2023-09-17T13:23:02.414Z,23.90
2023-09-17T13:25:04.469Z,23.80
2023-09-17T13:27:07.619Z,23.70
2023-09-17T13:29:09.446Z,23.70
2023-09-17T13:31:12.387Z,23.60
2023-09-17T13:33:15.639Z,23.70
2023-09-17T13:35:19.925Z,23.60
2023-09-17T13:37:21.863Z,23.60
2023-09-17T13:39:24.028Z,23.60
2023-09-17T13:41:29.724Z,23.70
2023-09-17T13:43:32.294Z,23.80
2023-09-17T13:45:34.187Z,23.80
2023-09-17T13:47:35.997Z,23.80
2023-09-17T13:49:38.658Z,23.60
2023-09-17T13:51:40.497Z,23.60
2023-09-17T13:53:42.541Z,23.60
2023-09-17T13:55:45.001Z,23.50
2023-09-17T13:57:47.029Z,23.40
2023-09-17T13:59:48.831Z,23.40
2023-09-17T14:01:50.674Z,23.30
2023-09-17T14:03:52.810Z,23.30
2023-09-17T14:05:55.120Z,23.30
2023-09-17T14:07:57.178Z,23.30
2023-09-17T14:10:00.195Z,23.30
2023-09-17T14:12:02.191Z,23.40
2023-09-17T14:14:04.572Z,23.60
2023-09-17T14:16:06.466Z,24.10
2023-09-17T14:18:08.784Z,23.80
2023-09-17T14:20:11.475Z,23.50
2023-09-17T14:22:15.057Z,23.30
2023-09-17T14:24:16.960Z,23.20
2023-09-17T14:26:19.003Z,22.90
2023-09-17T14:28:21.049Z,22.80
2023-09-17T14:30:23.528Z,22.80
2023-09-17T14:32:26.966Z,22.80
2023-09-17T14:34:28.962Z,23.30
2023-09-17T14:36:30.846Z,25.40
2023-09-17T14:38:32.775Z,27.10
2023-09-17T14:40:35.058Z,27.50
2023-09-17T14:42:36.873Z,26.60
2023-09-17T14:44:38.701Z,25.80
2023-09-17T14:46:40.819Z,24.90
2023-09-17T14:48:42.694Z,24.50
2023-09-17T14:50:44.522Z,24.80
2023-09-17T14:52:46.571Z,25.20
2023-09-17T14:54:49.803Z,24.90
2023-09-17T14:56:53.170Z,25.20
2023-09-17T14:58:56.090Z,25.80
2023-09-17T15:00:58.898Z,25.90
2023-09-17T15:03:02.962Z,25.50
2023-09-17T15:05:05.171Z,26.30
2023-09-17T15:07:07.244Z,27.20
2023-09-17T15:09:10.268Z,27.20
2023-09-17T15:11:12.106Z,27.10
2023-09-17T15:13:13.925Z,26.70
2023-09-17T15:15:15.829Z,26.20
2023-09-17T15:17:17.739Z,26.00
2023-09-17T15:19:19.592Z,25.80
2023-09-17T15:21:21.421Z,25.80
2023-09-17T15:23:23.252Z,25.80
2023-09-17T15:25:25.062Z,25.50
2023-09-17T15:27:29.137Z,25.30
2023-09-17T15:29:31.057Z,25.10
2023-09-17T15:31:36.165Z,24.60
2023-09-17T15:33:39.971Z,24.20
2023-09-17T15:35:42.478Z,24.00
2023-09-17T15:37:44.401Z,23.70
2023-09-17T15:39:46.296Z,23.40
2023-09-17T15:41:48.079Z,22.90
2023-09-17T15:43:50.179Z,22.80
2023-09-17T15:45:52.156Z,22.60
2023-09-17T15:47:54.068Z,22.40
2023-09-17T15:49:56.178Z,22.20
2023-09-17T15:51:58.075Z,21.80
2023-09-17T15:53:59.848Z,21.60
2023-09-17T15:56:01.784Z,21.40
2023-09-17T15:58:05.877Z,21.30
2023-09-17T16:00:08.010Z,21.10
2023-09-17T16:02:09.955Z,21.10
2023-09-17T16:04:12.013Z,21.10
2023-09-17T16:06:15.006Z,21.00
2023-09-17T16:08:16.833Z,20.90
2023-09-17T16:10:18.658Z,20.80
2023-09-17T16:12:21.748Z,20.80
2023-09-17T16:14:23.610Z,20.70
2023-09-17T16:16:25.516Z,20.70
2023-09-17T16:18:27.354Z,20.50
2023-09-17T16:20:29.312Z,20.30
2023-09-17T16:22:31.219Z,20.30
2023-09-17T16:24:32.992Z,20.30
2023-09-17T16:26:36.416Z,20.20
2023-09-17T16:28:39.706Z,20.20
2023-09-17T16:30:41.557Z,20.20
2023-09-17T16:32:44.309Z,20.10
2023-09-17T16:34:48.563Z,20.00
2023-09-17T16:36:50.361Z,20.00
2023-09-17T16:38:52.113Z,19.80
2023-09-17T16:40:54.108Z,19.70
2023-09-17T16:43:08.430Z,19.70
2023-09-17T16:45:12.199Z,19.50
2023-09-17T16:47:14.435Z,19.40
2023-09-17T16:49:16.327Z,19.30
2023-09-17T16:51:19.060Z,19.10
2023-09-17T16:53:20.952Z,19.00
2023-09-17T16:55:22.766Z,19.00
2023-09-17T16:57:24.645Z,19.00
2023-09-17T16:59:26.862Z,19.00
2023-09-17T17:01:28.694Z,18.90
2023-09-17T17:03:30.683Z,18.90
2023-09-17T17:05:32.563Z,18.90
2023-09-17T17:07:34.894Z,18.90
2023-09-17T17:09:36.895Z,18.90
2023-09-17T17:11:38.728Z,18.90
2023-09-17T17:13:40.540Z,18.70
2023-09-17T17:15:42.442Z,18.40
2023-09-17T17:17:44.337Z,18.40
2023-09-17T17:19:46.250Z,18.20
2023-09-17T17:21:48.106Z,18.10
2023-09-17T17:23:51.664Z,18.00
2023-09-17T17:25:53.737Z,18.00
2023-09-17T17:27:55.528Z,17.90
2023-09-17T17:29:57.360Z,18.00
2023-09-17T17:31:59.182Z,17.90
2023-09-17T17:34:00.980Z,18.00
2023-09-17T17:36:03.384Z,18.20
2023-09-17T17:38:05.290Z,18.00
2023-09-17T17:40:09.019Z,17.80
2023-09-17T17:42:10.870Z,17.80
2023-09-17T17:44:12.785Z,17.80
2023-09-17T17:46:15.158Z,17.70
2023-09-17T17:48:17.630Z,17.80
2023-09-17T17:50:19.718Z,17.70
2023-09-17T17:52:22.128Z,17.90
2023-09-17T17:54:24.108Z,17.90
2023-09-17T17:56:25.927Z,17.80
2023-09-17T17:58:27.782Z,17.90
2023-09-17T18:00:29.706Z,17.70
2023-09-17T18:02:31.559Z,17.60
2023-09-17T18:04:33.423Z,17.50
2023-09-17T18:06:35.241Z,17.50
2023-09-17T18:08:37.049Z,17.70
2023-09-17T18:10:39.085Z,17.60
2023-09-17T18:12:41.303Z,17.50
2023-09-17T18:14:45.149Z,17.40
2023-09-17T18:16:48.190Z,17.40
2023-09-17T18:18:50.154Z,17.60
2023-09-17T18:20:51.931Z,17.60
2023-09-17T18:22:54.067Z,17.60
2023-09-17T18:24:55.925Z,17.50
2023-09-17T18:26:57.732Z,17.40
2023-09-17T18:28:59.871Z,17.30
2023-09-17T18:31:02.179Z,17.20
2023-09-17T18:33:04.978Z,17.00
2023-09-17T18:35:06.958Z,17.00
2023-09-17T18:37:09.071Z,16.90
2023-09-17T18:39:10.929Z,16.90
2023-09-17T18:41:12.790Z,17.00
2023-09-17T18:43:14.653Z,16.90
2023-09-17T18:45:16.481Z,16.90
2023-09-17T18:47:19.494Z,16.90
2023-09-17T18:49:21.520Z,17.00
2023-09-17T18:51:23.421Z,16.80
2023-09-17T18:53:25.463Z,16.70
2023-09-17T18:55:27.459Z,16.60
2023-09-17T18:57:29.293Z,16.50
2023-09-17T18:59:31.121Z,16.50
2023-09-17T19:01:33.078Z,16.60
2023-09-17T19:03:34.933Z,16.70
2023-09-17T19:05:37.366Z,16.60
2023-09-17T19:07:40.589Z,16.50
2023-09-17T19:09:42.593Z,16.50
2023-09-17T19:11:44.362Z,16.40
2023-09-17T19:13:46.266Z,16.30
2023-09-17T19:15:48.355Z,16.50
2023-09-17T19:17:50.426Z,16.40
2023-09-17T19:19:52.902Z,16.30
2023-09-17T19:21:54.702Z,16.30
2023-09-17T19:23:58.624Z,16.20
2023-09-17T19:26:00.571Z,16.30
2023-09-17T19:28:02.394Z,16.20
2023-09-17T19:30:04.493Z,16.10
2023-09-17T19:32:06.545Z,16.10
2023-09-17T19:34:08.417Z,16.10
2023-09-17T19:36:10.294Z,16.10
2023-09-17T19:38:12.142Z,16.10
2023-09-17T19:40:13.977Z,16.10
2023-09-17T19:42:16.388Z,15.90
2023-09-17T19:44:18.623Z,16.00
2023-09-17T19:46:21.659Z,16.00
2023-09-17T19:48:23.581Z,16.00
2023-09-17T19:50:25.454Z,15.80
2023-09-17T19:52:27.389Z,15.70
2023-09-17T19:54:29.220Z,15.60
2023-09-17T19:56:31.712Z,15.60
2023-09-17T19:58:33.667Z,15.70
2023-09-17T20:00:35.634Z,15.70
2023-09-17T20:02:38.903Z,15.80
2023-09-17T20:04:40.843Z,15.90
2023-09-17T20:06:53.707Z,15.70
2023-09-17T20:08:57.254Z,15.60
2023-09-17T20:10:59.283Z,15.60
2023-09-17T20:13:01.269Z,15.60
2023-09-17T20:15:03.099Z,15.60
2023-09-17T20:17:05.055Z,15.50
2023-09-17T20:19:07.122Z,15.50
2023-09-17T20:21:09.554Z,15.60
2023-09-17T20:23:11.365Z,15.40
2023-09-17T20:25:16.720Z,15.50
2023-09-17T20:27:19.901Z,15.40
2023-09-17T20:29:21.833Z,15.40
2023-09-17T20:31:23.697Z,15.30
2023-09-17T20:33:26.161Z,15.30
2023-09-17T20:35:28.276Z,15.20
2023-09-17T20:37:30.154Z,15.10
2023-09-17T20:39:31.977Z,15.10
2023-09-17T20:41:34.270Z,15.10
2023-09-17T20:43:37.043Z,15.10
2023-09-17T20:45:41.164Z,15.10
2023-09-17T20:47:43.256Z,15.00
2023-09-17T20:49:45.083Z,15.00
2023-09-17T20:51:47.794Z,15.00
2023-09-17T20:53:51.126Z,15.00
2023-09-17T20:55:54.084Z,14.90
2023-09-17T20:57:55.923Z,14.90
2023-09-17T20:59:58.042Z,14.90
2023-09-17T21:02:01.094Z,14.90
2023-09-17T21:04:04.332Z,14.80
2023-09-17T21:06:07.451Z,14.80
2023-09-17T21:08:09.330Z,14.80
2023-09-17T21:10:11.249Z,14.70
2023-09-17T21:12:13.068Z,14.70
2023-09-17T21:14:14.930Z,14.70
2023-09-17T21:16:17.463Z,14.60
2023-09-17T21:18:19.400Z,14.70
2023-09-17T21:20:21.320Z,14.80
2023-09-17T21:22:23.825Z,14.80
2023-09-17T21:24:25.593Z,14.70
2023-09-17T21:26:27.418Z,14.70
2023-09-17T21:28:29.396Z,14.70
2023-09-17T21:30:32.011Z,14.70
2023-09-17T21:32:34.031Z,14.70
2023-09-17T21:34:36.125Z,14.70
2023-09-17T21:36:37.962Z,14.70
2023-09-17T21:38:40.821Z,14.70
2023-09-17T21:40:42.685Z,14.60
2023-09-17T21:42:47.739Z,14.50
2023-09-17T21:44:49.578Z,14.40
2023-09-17T21:46:54.584Z,14.30
2023-09-17T21:48:59.983Z,14.30
2023-09-17T21:51:01.759Z,14.40
2023-09-17T21:53:03.829Z,14.30
2023-09-17T21:55:05.929Z,14.30
2023-09-17T21:57:09.005Z,14.30
2023-09-17T21:59:10.867Z,14.20
2023-09-17T22:01:13.122Z,14.20
2023-09-17T22:03:15.276Z,14.10
2023-09-17T22:05:17.369Z,14.00
2023-09-17T22:07:19.227Z,13.90
2023-09-17T22:09:21.024Z,13.90
2023-09-17T22:11:23.437Z,13.90
2023-09-17T22:13:25.385Z,13.80
2023-09-17T22:15:27.181Z,13.80
2023-09-17T22:17:29.169Z,13.80
2023-09-17T22:19:31.469Z,13.70
2023-09-17T22:21:35.779Z,13.70
2023-09-17T22:23:37.830Z,13.70
2023-09-17T22:25:39.640Z,13.60
2023-09-17T22:27:41.882Z,13.60
2023-09-17T22:29:43.862Z,13.50
2023-09-17T22:31:45.696Z,13.60
2023-09-17T22:33:47.540Z,13.60
2023-09-17T22:35:49.362Z,13.60
2023-09-17T22:37:51.185Z,13.70
2023-09-17T22:39:53.112Z,13.70
2023-09-17T22:41:55.014Z,13.70
2023-09-17T22:44:08.069Z,13.60
2023-09-17T22:46:19.516Z,13.60
2023-09-17T22:48:21.370Z,13.60
2023-09-17T22:50:24.035Z,13.60
2023-09-17T22:52:25.860Z,13.50
2023-09-17T22:54:27.730Z,13.40
2023-09-17T22:56:29.620Z,13.30
2023-09-17T22:58:33.942Z,13.40
2023-09-17T23:00:35.881Z,13.30
2023-09-17T23:02:37.733Z,13.30
2023-09-17T23:04:39.594Z,13.30
2023-09-17T23:06:41.558Z,13.30
2023-09-17T23:08:43.422Z,13.30
2023-09-17T23:10:45.214Z,13.20
2023-09-17T23:12:47.206Z,13.20
2023-09-17T23:14:49.098Z,13.10
2023-09-17T23:16:50.958Z,13.00
2023-09-17T23:18:55.221Z,12.90
2023-09-17T23:20:57.904Z,12.90
2023-09-17T23:22:59.906Z,12.80
2023-09-17T23:25:01.723Z,12.80
2023-09-17T23:27:03.907Z,12.90
2023-09-17T23:29:07.663Z,12.80
2023-09-17T23:31:11.434Z,12.80
2023-09-17T23:33:14.264Z,12.80
2023-09-17T23:35:16.230Z,12.70
2023-09-17T23:37:18.134Z,12.70
2023-09-17T23:39:19.925Z,12.60
2023-09-17T23:41:21.944Z,12.60
2023-09-17T23:43:23.978Z,12.60
2023-09-17T23:45:27.041Z,12.50
2023-09-17T23:47:28.943Z,12.50
2023-09-17T23:49:30.856Z,12.50
2023-09-17T23:51:32.661Z,12.50
2023-09-17T23:53:34.610Z,12.50
2023-09-17T23:55:36.476Z,12.40
2023-09-17T23:57:38.230Z,12.40
2023-09-17T23:59:40.123Z,12.40
